sensor_id;sensor_type;location;lat;lon;timestamp;P1;durP1;ratioP1;P2;durP2;ratioP2
78120;SDS011;67585;44.802;10.332;2023-12-20T00:02:06;4.78;;;1.00;;
78120;SDS011;67585;44.802;10.332;2023-12-20T00:04:32;5.95;;;1.23;;
78120;SDS011;67585;44.802;10.332;2023-12-20T00:06:57;5.30;;;1.02;;
78120;SDS011;67585;44.802;10.332;2023-12-20T00:09:23;4.55;;;0.88;;
78120;SDS011;67585;44.802;10.332;2023-12-20T00:11:48;6.07;;;0.68;;
78120;SDS011;67585;44.802;10.332;2023-12-20T00:14:13;5.63;;;1.92;;
78120;SDS011;67585;44.802;10.332;2023-12-20T00:16:39;3.50;;;0.60;;
78120;SDS011;67585;44.802;10.332;2023-12-20T00:19:04;4.72;;;0.60;;
78120;SDS011;67585;44.802;10.332;2023-12-20T00:21:29;5.57;;;1.05;;
78120;SDS011;67585;44.802;10.332;2023-12-20T00:23:55;4.45;;;1.08;;
78120;SDS011;67585;44.802;10.332;2023-12-20T00:26:20;5.78;;;1.02;;
78120;SDS011;67585;44.802;10.332;2023-12-20T00:28:45;3.83;;;0.55;;
78120;SDS011;67585;44.802;10.332;2023-12-20T00:31:10;2.65;;;0.77;;
78120;SDS011;67585;44.802;10.332;2023-12-20T00:33:36;9.88;;;0.88;;
78120;SDS011;67585;44.802;10.332;2023-12-20T00:36:01;3.25;;;0.35;;
78120;SDS011;67585;44.802;10.332;2023-12-20T00:38:27;5.43;;;0.40;;
78120;SDS011;67585;44.802;10.332;2023-12-20T00:40:52;4.28;;;0.45;;
78120;SDS011;67585;44.802;10.332;2023-12-20T00:43:18;4.82;;;0.90;;
78120;SDS011;67585;44.802;10.332;2023-12-20T00:45:43;3.25;;;0.70;;
78120;SDS011;67585;44.802;10.332;2023-12-20T00:48:08;3.67;;;0.25;;
78120;SDS011;67585;44.802;10.332;2023-12-20T00:50:34;6.13;;;0.90;;
78120;SDS011;67585;44.802;10.332;2023-12-20T00:52:59;5.10;;;0.77;;
78120;SDS011;67585;44.802;10.332;2023-12-20T00:55:24;4.97;;;0.75;;
78120;SDS011;67585;44.802;10.332;2023-12-20T00:57:50;3.78;;;0.52;;
78120;SDS011;67585;44.802;10.332;2023-12-20T01:00:15;6.47;;;0.70;;
78120;SDS011;67585;44.802;10.332;2023-12-20T01:02:41;4.38;;;0.90;;
78120;SDS011;67585;44.802;10.332;2023-12-20T01:05:06;3.80;;;0.60;;
78120;SDS011;67585;44.802;10.332;2023-12-20T01:07:32;3.83;;;0.50;;
78120;SDS011;67585;44.802;10.332;2023-12-20T01:09:58;4.32;;;0.60;;
78120;SDS011;67585;44.802;10.332;2023-12-20T01:12:23;7.72;;;0.65;;
78120;SDS011;67585;44.802;10.332;2023-12-20T01:14:48;6.95;;;0.70;;
78120;SDS011;67585;44.802;10.332;2023-12-20T01:17:14;8.23;;;0.60;;
78120;SDS011;67585;44.802;10.332;2023-12-20T01:19:39;4.30;;;0.65;;
78120;SDS011;67585;44.802;10.332;2023-12-20T01:22:04;4.93;;;0.52;;
78120;SDS011;67585;44.802;10.332;2023-12-20T01:24:30;4.97;;;1.08;;
78120;SDS011;67585;44.802;10.332;2023-12-20T01:26:55;3.50;;;0.52;;
78120;SDS011;67585;44.802;10.332;2023-12-20T01:29:21;4.93;;;0.50;;
78120;SDS011;67585;44.802;10.332;2023-12-20T01:31:46;3.15;;;0.20;;
78120;SDS011;67585;44.802;10.332;2023-12-20T01:34:12;3.92;;;0.35;;
78120;SDS011;67585;44.802;10.332;2023-12-20T01:36:37;7.18;;;0.68;;
78120;SDS011;67585;44.802;10.332;2023-12-20T01:39:02;3.15;;;0.38;;
78120;SDS011;67585;44.802;10.332;2023-12-20T01:41:28;2.95;;;0.38;;
78120;SDS011;67585;44.802;10.332;2023-12-20T01:43:53;4.07;;;0.47;;
78120;SDS011;67585;44.802;10.332;2023-12-20T01:46:19;2.63;;;0.40;;
78120;SDS011;67585;44.802;10.332;2023-12-20T01:48:45;2.78;;;0.30;;
78120;SDS011;67585;44.802;10.332;2023-12-20T01:51:12;3.40;;;0.30;;
78120;SDS011;67585;44.802;10.332;2023-12-20T01:53:38;3.85;;;0.55;;
78120;SDS011;67585;44.802;10.332;2023-12-20T01:56:05;2.80;;;0.32;;
78120;SDS011;67585;44.802;10.332;2023-12-20T01:58:31;5.10;;;0.40;;
78120;SDS011;67585;44.802;10.332;2023-12-20T02:00:57;2.72;;;0.22;;
78120;SDS011;67585;44.802;10.332;2023-12-20T02:03:23;4.65;;;0.60;;
78120;SDS011;67585;44.802;10.332;2023-12-20T02:05:48;3.75;;;0.40;;
78120;SDS011;67585;44.802;10.332;2023-12-20T02:08:14;1.80;;;0.22;;
78120;SDS011;67585;44.802;10.332;2023-12-20T02:10:40;3.40;;;0.38;;
78120;SDS011;67585;44.802;10.332;2023-12-20T02:13:06;3.55;;;0.60;;
78120;SDS011;67585;44.802;10.332;2023-12-20T02:15:31;3.63;;;0.22;;
78120;SDS011;67585;44.802;10.332;2023-12-20T02:17:56;1.70;;;0.13;;
78120;SDS011;67585;44.802;10.332;2023-12-20T02:20:22;1.50;;;0.25;;
78120;SDS011;67585;44.802;10.332;2023-12-20T02:22:47;2.90;;;0.10;;
78120;SDS011;67585;44.802;10.332;2023-12-20T02:25:13;3.03;;;0.10;;
78120;SDS011;67585;44.802;10.332;2023-12-20T02:27:38;5.10;;;0.38;;
78120;SDS011;67585;44.802;10.332;2023-12-20T02:30:05;1.88;;;0.10;;
78120;SDS011;67585;44.802;10.332;2023-12-20T02:32:31;2.92;;;0.47;;
78120;SDS011;67585;44.802;10.332;2023-12-20T02:34:56;3.90;;;0.30;;
78120;SDS011;67585;44.802;10.332;2023-12-20T02:37:22;4.70;;;0.43;;
78120;SDS011;67585;44.802;10.332;2023-12-20T02:39:48;4.93;;;0.60;;
78120;SDS011;67585;44.802;10.332;2023-12-20T02:42:13;3.28;;;1.25;;
78120;SDS011;67585;44.802;10.332;2023-12-20T02:44:38;3.03;;;0.40;;
78120;SDS011;67585;44.802;10.332;2023-12-20T02:47:04;3.22;;;0.32;;
78120;SDS011;67585;44.802;10.332;2023-12-20T02:49:29;2.28;;;0.30;;
78120;SDS011;67585;44.802;10.332;2023-12-20T02:51:55;2.90;;;0.30;;
78120;SDS011;67585;44.802;10.332;2023-12-20T02:54:20;8.63;;;0.70;;
78120;SDS011;67585;44.802;10.332;2023-12-20T02:56:46;4.22;;;0.88;;
78120;SDS011;67585;44.802;10.332;2023-12-20T02:59:11;4.28;;;0.60;;
78120;SDS011;67585;44.802;10.332;2023-12-20T03:01:43;4.45;;;0.85;;
78120;SDS011;67585;44.802;10.332;2023-12-20T03:04:10;5.20;;;0.63;;
78120;SDS011;67585;44.802;10.332;2023-12-20T03:06:35;5.90;;;1.23;;
78120;SDS011;67585;44.802;10.332;2023-12-20T03:09:01;5.25;;;0.82;;
78120;SDS011;67585;44.802;10.332;2023-12-20T03:11:27;7.60;;;1.50;;
78120;SDS011;67585;44.802;10.332;2023-12-20T03:13:53;5.38;;;0.52;;
78120;SDS011;67585;44.802;10.332;2023-12-20T03:16:18;4.57;;;0.75;;
78120;SDS011;67585;44.802;10.332;2023-12-20T03:18:44;4.30;;;0.52;;
78120;SDS011;67585;44.802;10.332;2023-12-20T03:21:09;4.85;;;0.73;;
78120;SDS011;67585;44.802;10.332;2023-12-20T03:23:34;8.20;;;0.43;;
78120;SDS011;67585;44.802;10.332;2023-12-20T03:26:00;3.45;;;0.57;;
78120;SDS011;67585;44.802;10.332;2023-12-20T03:28:29;3.33;;;0.60;;
78120;SDS011;67585;44.802;10.332;2023-12-20T03:30:54;4.68;;;0.90;;
78120;SDS011;67585;44.802;10.332;2023-12-20T03:33:20;5.28;;;0.68;;
78120;SDS011;67585;44.802;10.332;2023-12-20T03:35:45;4.68;;;0.75;;
78120;SDS011;67585;44.802;10.332;2023-12-20T03:38:11;4.32;;;0.68;;
78120;SDS011;67585;44.802;10.332;2023-12-20T03:40:36;5.40;;;0.47;;
78120;SDS011;67585;44.802;10.332;2023-12-20T03:43:01;4.68;;;0.73;;
78120;SDS011;67585;44.802;10.332;2023-12-20T03:45:27;4.93;;;0.68;;
78120;SDS011;67585;44.802;10.332;2023-12-20T03:47:52;6.68;;;1.20;;
78120;SDS011;67585;44.802;10.332;2023-12-20T03:50:24;6.72;;;0.82;;
78120;SDS011;67585;44.802;10.332;2023-12-20T03:52:51;4.78;;;0.43;;
78120;SDS011;67585;44.802;10.332;2023-12-20T03:55:16;8.40;;;1.33;;
78120;SDS011;67585;44.802;10.332;2023-12-20T03:57:41;3.55;;;0.30;;
78120;SDS011;67585;44.802;10.332;2023-12-20T04:00:07;6.90;;;1.13;;
78120;SDS011;67585;44.802;10.332;2023-12-20T04:02:37;9.68;;;0.90;;
78120;SDS011;67585;44.802;10.332;2023-12-20T04:05:02;4.93;;;0.57;;
78120;SDS011;67585;44.802;10.332;2023-12-20T04:07:28;6.57;;;1.20;;
78120;SDS011;67585;44.802;10.332;2023-12-20T04:09:54;5.82;;;0.90;;
78120;SDS011;67585;44.802;10.332;2023-12-20T04:12:20;3.38;;;0.73;;
78120;SDS011;67585;44.802;10.332;2023-12-20T04:14:46;6.45;;;1.23;;
78120;SDS011;67585;44.802;10.332;2023-12-20T04:17:11;5.30;;;0.88;;
78120;SDS011;67585;44.802;10.332;2023-12-20T04:19:36;5.38;;;0.95;;
78120;SDS011;67585;44.802;10.332;2023-12-20T04:22:02;5.43;;;1.13;;
78120;SDS011;67585;44.802;10.332;2023-12-20T04:24:27;8.02;;;1.25;;
78120;SDS011;67585;44.802;10.332;2023-12-20T04:26:53;6.43;;;1.20;;
78120;SDS011;67585;44.802;10.332;2023-12-20T04:29:18;5.18;;;0.65;;
78120;SDS011;67585;44.802;10.332;2023-12-20T04:31:44;5.72;;;1.08;;
78120;SDS011;67585;44.802;10.332;2023-12-20T04:34:09;4.30;;;0.63;;
78120;SDS011;67585;44.802;10.332;2023-12-20T04:36:34;7.97;;;1.25;;
78120;SDS011;67585;44.802;10.332;2023-12-20T04:39:00;9.25;;;1.42;;
78120;SDS011;67585;44.802;10.332;2023-12-20T04:41:25;7.95;;;1.65;;
78120;SDS011;67585;44.802;10.332;2023-12-20T04:43:52;7.22;;;1.10;;
78120;SDS011;67585;44.802;10.332;2023-12-20T04:46:18;4.30;;;0.82;;
78120;SDS011;67585;44.802;10.332;2023-12-20T04:48:43;5.75;;;1.13;;
78120;SDS011;67585;44.802;10.332;2023-12-20T04:51:08;6.32;;;0.95;;
78120;SDS011;67585;44.802;10.332;2023-12-20T04:53:34;4.35;;;0.75;;
78120;SDS011;67585;44.802;10.332;2023-12-20T04:55:59;6.40;;;1.98;;
78120;SDS011;67585;44.802;10.332;2023-12-20T04:58:25;8.70;;;1.05;;
78120;SDS011;67585;44.802;10.332;2023-12-20T05:00:50;12.05;;;1.42;;
78120;SDS011;67585;44.802;10.332;2023-12-20T05:03:15;6.53;;;1.48;;
78120;SDS011;67585;44.802;10.332;2023-12-20T05:05:41;14.35;;;2.45;;
78120;SDS011;67585;44.802;10.332;2023-12-20T05:08:06;6.30;;;1.15;;
78120;SDS011;67585;44.802;10.332;2023-12-20T05:10:31;11.68;;;2.20;;
78120;SDS011;67585;44.802;10.332;2023-12-20T05:12:57;13.23;;;2.25;;
78120;SDS011;67585;44.802;10.332;2023-12-20T05:15:22;6.72;;;2.00;;
78120;SDS011;67585;44.802;10.332;2023-12-20T05:17:48;7.55;;;1.88;;
78120;SDS011;67585;44.802;10.332;2023-12-20T05:20:13;6.90;;;1.90;;
78120;SDS011;67585;44.802;10.332;2023-12-20T05:22:38;8.23;;;1.95;;
78120;SDS011;67585;44.802;10.332;2023-12-20T05:25:04;7.95;;;2.08;;
78120;SDS011;67585;44.802;10.332;2023-12-20T05:27:29;8.05;;;1.25;;
78120;SDS011;67585;44.802;10.332;2023-12-20T05:29:55;5.95;;;1.70;;
78120;SDS011;67585;44.802;10.332;2023-12-20T05:32:22;6.28;;;1.58;;
78120;SDS011;67585;44.802;10.332;2023-12-20T05:34:48;7.65;;;1.00;;
78120;SDS011;67585;44.802;10.332;2023-12-20T05:37:13;6.18;;;1.25;;
78120;SDS011;67585;44.802;10.332;2023-12-20T05:39:39;6.47;;;1.48;;
78120;SDS011;67585;44.802;10.332;2023-12-20T05:42:04;10.23;;;1.73;;
78120;SDS011;67585;44.802;10.332;2023-12-20T05:44:29;7.30;;;1.23;;
78120;SDS011;67585;44.802;10.332;2023-12-20T05:46:55;6.50;;;1.23;;
78120;SDS011;67585;44.802;10.332;2023-12-20T05:49:20;14.07;;;1.60;;
78120;SDS011;67585;44.802;10.332;2023-12-20T05:51:46;7.32;;;0.90;;
78120;SDS011;67585;44.802;10.332;2023-12-20T05:54:12;6.75;;;0.85;;
78120;SDS011;67585;44.802;10.332;2023-12-20T05:56:38;9.52;;;1.27;;
78120;SDS011;67585;44.802;10.332;2023-12-20T05:59:03;7.07;;;1.60;;
78120;SDS011;67585;44.802;10.332;2023-12-20T06:01:29;4.90;;;0.85;;
78120;SDS011;67585;44.802;10.332;2023-12-20T06:03:54;6.38;;;1.40;;
78120;SDS011;67585;44.802;10.332;2023-12-20T06:06:19;9.00;;;1.10;;
78120;SDS011;67585;44.802;10.332;2023-12-20T06:08:45;7.68;;;1.20;;
78120;SDS011;67585;44.802;10.332;2023-12-20T06:11:10;8.82;;;1.58;;
78120;SDS011;67585;44.802;10.332;2023-12-20T06:13:35;6.20;;;1.40;;
78120;SDS011;67585;44.802;10.332;2023-12-20T06:16:01;9.60;;;1.23;;
78120;SDS011;67585;44.802;10.332;2023-12-20T06:18:26;8.98;;;1.63;;
78120;SDS011;67585;44.802;10.332;2023-12-20T06:20:52;7.20;;;1.40;;
78120;SDS011;67585;44.802;10.332;2023-12-20T06:23:17;8.70;;;1.75;;
78120;SDS011;67585;44.802;10.332;2023-12-20T06:25:43;8.82;;;1.60;;
78120;SDS011;67585;44.802;10.332;2023-12-20T06:28:09;7.28;;;1.65;;
78120;SDS011;67585;44.802;10.332;2023-12-20T06:30:35;6.55;;;1.55;;
78120;SDS011;67585;44.802;10.332;2023-12-20T06:33:01;10.00;;;2.25;;
78120;SDS011;67585;44.802;10.332;2023-12-20T06:35:26;9.48;;;1.63;;
78120;SDS011;67585;44.802;10.332;2023-12-20T06:37:51;6.85;;;2.38;;
78120;SDS011;67585;44.802;10.332;2023-12-20T06:40:17;9.90;;;1.77;;
78120;SDS011;67585;44.802;10.332;2023-12-20T06:42:43;7.55;;;2.10;;
78120;SDS011;67585;44.802;10.332;2023-12-20T06:45:09;7.03;;;1.40;;
78120;SDS011;67585;44.802;10.332;2023-12-20T06:47:35;7.40;;;1.55;;
78120;SDS011;67585;44.802;10.332;2023-12-20T06:50:00;5.32;;;0.95;;
78120;SDS011;67585;44.802;10.332;2023-12-20T06:52:26;8.98;;;1.83;;
78120;SDS011;67585;44.802;10.332;2023-12-20T06:54:51;7.25;;;1.95;;
78120;SDS011;67585;44.802;10.332;2023-12-20T06:57:17;8.88;;;2.35;;
78120;SDS011;67585;44.802;10.332;2023-12-20T06:59:43;6.78;;;2.13;;
78120;SDS011;67585;44.802;10.332;2023-12-20T07:02:09;10.32;;;3.05;;
78120;SDS011;67585;44.802;10.332;2023-12-20T07:04:38;10.52;;;2.53;;
78120;SDS011;67585;44.802;10.332;2023-12-20T07:07:05;9.38;;;2.25;;
78120;SDS011;67585;44.802;10.332;2023-12-20T07:09:30;7.15;;;1.88;;
78120;SDS011;67585;44.802;10.332;2023-12-20T07:11:56;9.00;;;2.30;;
78120;SDS011;67585;44.802;10.332;2023-12-20T07:14:21;9.85;;;1.95;;
78120;SDS011;67585;44.802;10.332;2023-12-20T07:16:46;7.65;;;2.60;;
78120;SDS011;67585;44.802;10.332;2023-12-20T07:19:12;8.15;;;2.00;;
78120;SDS011;67585;44.802;10.332;2023-12-20T07:21:37;9.45;;;2.95;;
78120;SDS011;67585;44.802;10.332;2023-12-20T07:24:03;7.90;;;2.50;;
78120;SDS011;67585;44.802;10.332;2023-12-20T07:26:28;7.40;;;2.40;;
78120;SDS011;67585;44.802;10.332;2023-12-20T07:28:54;12.88;;;3.33;;
78120;SDS011;67585;44.802;10.332;2023-12-20T07:31:19;12.38;;;3.05;;
78120;SDS011;67585;44.802;10.332;2023-12-20T07:33:45;7.68;;;2.47;;
78120;SDS011;67585;44.802;10.332;2023-12-20T07:36:11;6.97;;;2.65;;
78120;SDS011;67585;44.802;10.332;2023-12-20T07:38:37;13.38;;;3.70;;
78120;SDS011;67585;44.802;10.332;2023-12-20T07:41:02;16.08;;;3.38;;
78120;SDS011;67585;44.802;10.332;2023-12-20T07:43:28;10.35;;;2.63;;
78120;SDS011;67585;44.802;10.332;2023-12-20T07:45:53;11.70;;;2.90;;
78120;SDS011;67585;44.802;10.332;2023-12-20T07:48:19;12.10;;;3.20;;
78120;SDS011;67585;44.802;10.332;2023-12-20T07:50:44;11.00;;;2.72;;
78120;SDS011;67585;44.802;10.332;2023-12-20T07:53:09;12.13;;;2.90;;
78120;SDS011;67585;44.802;10.332;2023-12-20T07:55:35;10.73;;;2.65;;
78120;SDS011;67585;44.802;10.332;2023-12-20T07:58:00;15.43;;;2.47;;
78120;SDS011;67585;44.802;10.332;2023-12-20T08:00:26;10.90;;;2.28;;
78120;SDS011;67585;44.802;10.332;2023-12-20T08:02:52;10.43;;;2.60;;
78120;SDS011;67585;44.802;10.332;2023-12-20T08:05:17;9.73;;;2.45;;
78120;SDS011;67585;44.802;10.332;2023-12-20T08:07:43;8.40;;;2.50;;
78120;SDS011;67585;44.802;10.332;2023-12-20T08:10:08;12.85;;;1.92;;
78120;SDS011;67585;44.802;10.332;2023-12-20T08:12:34;9.93;;;2.38;;
78120;SDS011;67585;44.802;10.332;2023-12-20T08:15:00;10.70;;;1.92;;
78120;SDS011;67585;44.802;10.332;2023-12-20T08:17:26;10.02;;;2.50;;
78120;SDS011;67585;44.802;10.332;2023-12-20T08:19:51;8.73;;;1.55;;
78120;SDS011;67585;44.802;10.332;2023-12-20T08:22:17;7.68;;;1.60;;
78120;SDS011;67585;44.802;10.332;2023-12-20T08:24:42;9.50;;;2.22;;
78120;SDS011;67585;44.802;10.332;2023-12-20T08:27:07;12.25;;;2.17;;
78120;SDS011;67585;44.802;10.332;2023-12-20T08:29:34;9.23;;;1.83;;
78120;SDS011;67585;44.802;10.332;2023-12-20T08:32:01;6.90;;;1.35;;
78120;SDS011;67585;44.802;10.332;2023-12-20T08:34:26;9.57;;;1.42;;
78120;SDS011;67585;44.802;10.332;2023-12-20T08:36:52;9.55;;;1.30;;
78120;SDS011;67585;44.802;10.332;2023-12-20T08:39:17;11.18;;;1.17;;
78120;SDS011;67585;44.802;10.332;2023-12-20T08:41:42;6.22;;;1.52;;
78120;SDS011;67585;44.802;10.332;2023-12-20T08:44:08;7.50;;;1.60;;
78120;SDS011;67585;44.802;10.332;2023-12-20T08:46:34;7.38;;;1.75;;
78120;SDS011;67585;44.802;10.332;2023-12-20T08:49:00;8.07;;;1.00;;
78120;SDS011;67585;44.802;10.332;2023-12-20T08:51:26;8.20;;;1.08;;
78120;SDS011;67585;44.802;10.332;2023-12-20T08:53:52;9.77;;;1.27;;
78120;SDS011;67585;44.802;10.332;2023-12-20T08:56:18;6.40;;;1.75;;
78120;SDS011;67585;44.802;10.332;2023-12-20T08:58:44;6.80;;;1.40;;
78120;SDS011;67585;44.802;10.332;2023-12-20T09:01:10;5.25;;;1.08;;
78120;SDS011;67585;44.802;10.332;2023-12-20T09:03:35;11.48;;;1.13;;
78120;SDS011;67585;44.802;10.332;2023-12-20T09:06:01;6.50;;;1.00;;
78120;SDS011;67585;44.802;10.332;2023-12-20T09:08:27;6.15;;;1.15;;
78120;SDS011;67585;44.802;10.332;2023-12-20T09:10:52;10.48;;;2.13;;
78120;SDS011;67585;44.802;10.332;2023-12-20T09:13:17;6.43;;;1.10;;
78120;SDS011;67585;44.802;10.332;2023-12-20T09:15:43;6.97;;;1.60;;
78120;SDS011;67585;44.802;10.332;2023-12-20T09:18:08;8.18;;;1.58;;
78120;SDS011;67585;44.802;10.332;2023-12-20T09:20:34;5.57;;;1.05;;
78120;SDS011;67585;44.802;10.332;2023-12-20T09:23:00;8.40;;;1.00;;
78120;SDS011;67585;44.802;10.332;2023-12-20T09:25:25;6.95;;;0.93;;
78120;SDS011;67585;44.802;10.332;2023-12-20T09:27:51;9.45;;;1.90;;
78120;SDS011;67585;44.802;10.332;2023-12-20T09:30:17;8.00;;;1.30;;
78120;SDS011;67585;44.802;10.332;2023-12-20T09:32:43;6.97;;;1.27;;
78120;SDS011;67585;44.802;10.332;2023-12-20T09:35:09;11.13;;;1.85;;
78120;SDS011;67585;44.802;10.332;2023-12-20T09:37:34;16.63;;;1.75;;
78120;SDS011;67585;44.802;10.332;2023-12-20T09:40:00;6.75;;;1.73;;
78120;SDS011;67585;44.802;10.332;2023-12-20T09:45:20;7.30;;;1.85;;
78120;SDS011;67585;44.802;10.332;2023-12-20T09:47:55;9.18;;;1.48;;
78120;SDS011;67585;44.802;10.332;2023-12-20T09:50:21;8.88;;;1.50;;
78120;SDS011;67585;44.802;10.332;2023-12-20T09:52:51;8.88;;;1.63;;
78120;SDS011;67585;44.802;10.332;2023-12-20T09:55:17;11.63;;;2.58;;
78120;SDS011;67585;44.802;10.332;2023-12-20T09:57:46;10.20;;;2.85;;
78120;SDS011;67585;44.802;10.332;2023-12-20T10:00:13;13.18;;;2.35;;
78120;SDS011;67585;44.802;10.332;2023-12-20T10:02:42;6.80;;;1.67;;
78120;SDS011;67585;44.802;10.332;2023-12-20T10:05:15;9.18;;;1.35;;
78120;SDS011;67585;44.802;10.332;2023-12-20T10:07:45;8.93;;;1.60;;
78120;SDS011;67585;44.802;10.332;2023-12-20T10:10:13;10.32;;;3.53;;
78120;SDS011;67585;44.802;10.332;2023-12-20T10:12:38;13.63;;;2.88;;
78120;SDS011;67585;44.802;10.332;2023-12-20T10:15:04;9.70;;;2.55;;
78120;SDS011;67585;44.802;10.332;2023-12-20T10:17:31;11.40;;;2.53;;
78120;SDS011;67585;44.802;10.332;2023-12-20T10:19:57;9.50;;;2.47;;
78120;SDS011;67585;44.802;10.332;2023-12-20T10:22:23;17.13;;;3.88;;
78120;SDS011;67585;44.802;10.332;2023-12-20T10:24:48;13.73;;;3.13;;
78120;SDS011;67585;44.802;10.332;2023-12-20T10:27:14;14.00;;;2.75;;
78120;SDS011;67585;44.802;10.332;2023-12-20T10:29:39;13.80;;;3.47;;
78120;SDS011;67585;44.802;10.332;2023-12-20T10:34:53;12.48;;;3.97;;
78120;SDS011;67585;44.802;10.332;2023-12-20T10:37:19;9.02;;;3.30;;
78120;SDS011;67585;44.802;10.332;2023-12-20T10:39:52;12.48;;;3.85;;
78120;SDS011;67585;44.802;10.332;2023-12-20T10:42:21;13.70;;;3.05;;
78120;SDS011;67585;44.802;10.332;2023-12-20T10:44:47;11.60;;;4.00;;
78120;SDS011;67585;44.802;10.332;2023-12-20T10:47:14;14.25;;;4.50;;
78120;SDS011;67585;44.802;10.332;2023-12-20T10:49:40;10.32;;;2.47;;
78120;SDS011;67585;44.802;10.332;2023-12-20T10:52:07;16.63;;;3.83;;
78120;SDS011;67585;44.802;10.332;2023-12-20T10:54:34;13.93;;;3.85;;
78120;SDS011;67585;44.802;10.332;2023-12-20T10:56:59;14.27;;;3.60;;
78120;SDS011;67585;44.802;10.332;2023-12-20T10:59:25;14.00;;;4.38;;
78120;SDS011;67585;44.802;10.332;2023-12-20T11:01:54;15.32;;;3.40;;
78120;SDS011;67585;44.802;10.332;2023-12-20T11:04:23;12.70;;;3.72;;
78120;SDS011;67585;44.802;10.332;2023-12-20T11:06:55;17.17;;;4.20;;
78120;SDS011;67585;44.802;10.332;2023-12-20T11:09:31;13.15;;;3.70;;
78120;SDS011;67585;44.802;10.332;2023-12-20T11:14:54;20.08;;;4.68;;
78120;SDS011;67585;44.802;10.332;2023-12-20T11:17:22;19.85;;;4.00;;
78120;SDS011;67585;44.802;10.332;2023-12-20T11:22:51;15.82;;;4.75;;
78120;SDS011;67585;44.802;10.332;2023-12-20T11:25:18;16.73;;;4.40;;
78120;SDS011;67585;44.802;10.332;2023-12-20T11:27:44;8.77;;;3.70;;
78120;SDS011;67585;44.802;10.332;2023-12-20T11:31:07;16.55;;;4.32;;
78120;SDS011;67585;44.802;10.332;2023-12-20T11:33:29;14.48;;;3.63;;
78120;SDS011;67585;44.802;10.332;2023-12-20T11:36:12;12.57;;;4.18;;
78120;SDS011;67585;44.802;10.332;2023-12-20T11:38:39;17.60;;;4.18;;
78120;SDS011;67585;44.802;10.332;2023-12-20T11:41:19;15.05;;;4.28;;
78120;SDS011;67585;44.802;10.332;2023-12-20T11:43:48;13.30;;;3.65;;
78120;SDS011;67585;44.802;10.332;2023-12-20T11:46:13;11.63;;;4.15;;
78120;SDS011;67585;44.802;10.332;2023-12-20T11:48:38;11.43;;;3.33;;
78120;SDS011;67585;44.802;10.332;2023-12-20T11:51:11;14.63;;;3.63;;
78120;SDS011;67585;44.802;10.332;2023-12-20T11:53:38;12.38;;;4.18;;
78120;SDS011;67585;44.802;10.332;2023-12-20T11:56:07;14.38;;;3.70;;
78120;SDS011;67585;44.802;10.332;2023-12-20T11:58:33;14.65;;;3.20;;
78120;SDS011;67585;44.802;10.332;2023-12-20T12:00:59;10.73;;;2.92;;
78120;SDS011;67585;44.802;10.332;2023-12-20T12:03:24;15.00;;;3.47;;
78120;SDS011;67585;44.802;10.332;2023-12-20T12:05:50;10.75;;;4.18;;
78120;SDS011;67585;44.802;10.332;2023-12-20T12:08:19;12.18;;;3.28;;
78120;SDS011;67585;44.802;10.332;2023-12-20T12:10:44;14.00;;;4.28;;
78120;SDS011;67585;44.802;10.332;2023-12-20T12:13:10;12.05;;;3.97;;
78120;SDS011;67585;44.802;10.332;2023-12-20T12:15:36;12.20;;;3.60;;
78120;SDS011;67585;44.802;10.332;2023-12-20T12:18:02;16.75;;;3.88;;
78120;SDS011;67585;44.802;10.332;2023-12-20T12:20:28;14.93;;;4.32;;
78120;SDS011;67585;44.802;10.332;2023-12-20T12:23:01;18.02;;;3.45;;
78120;SDS011;67585;44.802;10.332;2023-12-20T12:25:28;12.63;;;4.18;;
78120;SDS011;67585;44.802;10.332;2023-12-20T12:27:55;9.85;;;3.13;;
78120;SDS011;67585;44.802;10.332;2023-12-20T12:30:21;15.82;;;3.03;;
78120;SDS011;67585;44.802;10.332;2023-12-20T12:32:47;12.85;;;3.60;;
78120;SDS011;67585;44.802;10.332;2023-12-20T12:35:13;11.45;;;3.90;;
78120;SDS011;67585;44.802;10.332;2023-12-20T12:37:39;17.23;;;4.68;;
78120;SDS011;67585;44.802;10.332;2023-12-20T12:40:06;12.80;;;3.78;;
78120;SDS011;67585;44.802;10.332;2023-12-20T12:42:32;15.15;;;3.05;;
78120;SDS011;67585;44.802;10.332;2023-12-20T12:44:58;13.77;;;4.00;;
78120;SDS011;67585;44.802;10.332;2023-12-20T12:47:23;17.17;;;3.95;;
78120;SDS011;67585;44.802;10.332;2023-12-20T12:49:49;10.35;;;4.18;;
78120;SDS011;67585;44.802;10.332;2023-12-20T12:52:16;12.00;;;3.75;;
78120;SDS011;67585;44.802;10.332;2023-12-20T12:54:43;14.40;;;3.70;;
78120;SDS011;67585;44.802;10.332;2023-12-20T12:57:10;11.93;;;4.13;;
78120;SDS011;67585;44.802;10.332;2023-12-20T12:59:36;11.95;;;2.97;;
78120;SDS011;67585;44.802;10.332;2023-12-20T13:02:01;12.45;;;4.13;;
78120;SDS011;67585;44.802;10.332;2023-12-20T13:04:26;13.15;;;3.95;;
78120;SDS011;67585;44.802;10.332;2023-12-20T13:06:52;11.25;;;3.45;;
78120;SDS011;67585;44.802;10.332;2023-12-20T13:09:17;11.30;;;3.53;;
78120;SDS011;67585;44.802;10.332;2023-12-20T13:11:44;11.35;;;3.42;;
78120;SDS011;67585;44.802;10.332;2023-12-20T13:14:09;14.48;;;3.50;;
78120;SDS011;67585;44.802;10.332;2023-12-20T13:16:40;9.77;;;3.03;;
78120;SDS011;67585;44.802;10.332;2023-12-20T13:19:06;15.52;;;3.58;;
78120;SDS011;67585;44.802;10.332;2023-12-20T13:21:31;13.18;;;3.92;;
78120;SDS011;67585;44.802;10.332;2023-12-20T13:23:57;13.40;;;3.83;;
78120;SDS011;67585;44.802;10.332;2023-12-20T13:26:22;12.23;;;4.45;;
78120;SDS011;67585;44.802;10.332;2023-12-20T13:28:47;11.02;;;4.07;;
78120;SDS011;67585;44.802;10.332;2023-12-20T13:31:13;15.95;;;4.10;;
78120;SDS011;67585;44.802;10.332;2023-12-20T13:33:38;14.85;;;3.78;;
78120;SDS011;67585;44.802;10.332;2023-12-20T13:36:04;16.77;;;3.92;;
78120;SDS011;67585;44.802;10.332;2023-12-20T13:38:30;18.52;;;4.75;;
78120;SDS011;67585;44.802;10.332;2023-12-20T13:40:55;16.98;;;4.72;;
78120;SDS011;67585;44.802;10.332;2023-12-20T13:43:23;16.50;;;5.25;;
78120;SDS011;67585;44.802;10.332;2023-12-20T13:45:49;19.05;;;4.68;;
78120;SDS011;67585;44.802;10.332;2023-12-20T13:48:15;12.73;;;5.00;;
78120;SDS011;67585;44.802;10.332;2023-12-20T13:50:40;13.73;;;3.75;;
78120;SDS011;67585;44.802;10.332;2023-12-20T13:53:06;13.27;;;4.50;;
78120;SDS011;67585;44.802;10.332;2023-12-20T13:55:31;21.35;;;5.32;;
78120;SDS011;67585;44.802;10.332;2023-12-20T13:57:56;20.02;;;5.38;;
78120;SDS011;67585;44.802;10.332;2023-12-20T14:00:22;16.20;;;4.45;;
78120;SDS011;67585;44.802;10.332;2023-12-20T14:02:48;20.60;;;5.43;;
78120;SDS011;67585;44.802;10.332;2023-12-20T14:05:14;15.35;;;4.25;;
78120;SDS011;67585;44.802;10.332;2023-12-20T14:07:42;18.88;;;6.03;;
78120;SDS011;67585;44.802;10.332;2023-12-20T14:10:10;12.27;;;4.63;;
78120;SDS011;67585;44.802;10.332;2023-12-20T14:12:36;15.18;;;4.65;;
78120;SDS011;67585;44.802;10.332;2023-12-20T14:15:03;21.40;;;4.72;;
78120;SDS011;67585;44.802;10.332;2023-12-20T14:17:34;15.38;;;5.45;;
78120;SDS011;67585;44.802;10.332;2023-12-20T14:19:59;18.90;;;4.55;;
78120;SDS011;67585;44.802;10.332;2023-12-20T14:22:25;20.05;;;4.65;;
78120;SDS011;67585;44.802;10.332;2023-12-20T14:24:50;14.43;;;4.53;;
78120;SDS011;67585;44.802;10.332;2023-12-20T14:27:16;12.43;;;4.13;;
78120;SDS011;67585;44.802;10.332;2023-12-20T14:29:41;14.75;;;4.10;;
78120;SDS011;67585;44.802;10.332;2023-12-20T14:32:06;14.20;;;4.05;;
78120;SDS011;67585;44.802;10.332;2023-12-20T14:34:32;13.18;;;4.82;;